Happy Valentine's Day! 

Flight Track Log - Related Links

Times and Time Zones

All times are in EST time to prevent confusion due to time zone crossing. See the SKW6492 flight status page for this flight to view local times or setup timezone preferences in your user account.


Time Position Orientation Groundspeed Altitude Reporting Facility
EST Latitude Longitude Course Direction KTS MPH feet Rate Location/Type
Tue 10:27:18 PM 39.9333 -104.6833 346° North 190 219 7,600  Level Denver TRACON
Tue 10:28:19 PM 40.0000 -104.6667 11° North 269 310 9,000 2,033 Climbing Denver TRACON
Tue 10:29:19 PM 40.0667 -104.6667 360° North 280 322 11,700 2,708 Climbing Denver TRACON
Tue 10:30:00 PM 40.2113 -104.7850 347° North  Level FlightAware Approximate
Tue 10:30:12 PM 40.1458 -104.6800 353° North 290 334 14,100  Level Denver Center
Tue 10:31:00 PM 40.3022 -104.8123 347° North  Level FlightAware Approximate
Tue 10:31:13 PM 40.2250 -104.7028 348° North 292 336 16,300  Level Denver Center
Tue 10:32:00 PM 40.3927 -104.8420 346° North  Level FlightAware Approximate
Tue 10:32:14 PM 40.2950 -104.7208 349° North 300 345 17,900  Level Denver Center
Tue 10:33:16 PM 40.3994 -104.7483 349° North 308 354 19,900 1,756 Climbing Denver Center
Tue 10:34:17 PM 40.4872 -104.7722 348° North 313 360 21,500 1,623 Climbing Denver Center
Tue 10:35:18 PM 40.5747 -104.7931 350° North 316 364 23,200 1,475 Climbing Denver Center
Tue 10:36:19 PM 40.6622 -104.8167 348° North 321 369 24,500 1,328 Climbing Denver Center
Tue 10:37:20 PM 40.7383 -104.8756 330° Northwest 323 372 25,900 1,180 Climbing Denver Center
Tue 10:38:21 PM 40.8089 -104.9428 324° Northwest 316 364 26,900 878 Climbing Denver Center
Tue 10:39:23 PM 40.8806 -105.0119 324° Northwest 318 366 27,700 732 Climbing Denver Center
Tue 10:40:24 PM 40.9519 -105.0822 323° Northwest 321 369 28,400 787 Climbing Denver Center
Tue 10:41:25 PM 41.0311 -105.1589 324° Northwest 323 372 29,300 885 Climbing Denver Center
Tue 10:42:26 PM 41.0997 -105.2258 324° Northwest 321 369 30,200 885 Climbing Denver Center
Tue 10:43:27 PM 41.1783 -105.3053 323° Northwest 318 366 31,100 885 Climbing Denver Center
Tue 10:44:28 PM 41.2464 -105.3731 323° Northwest 319 367 32,000 443 Climbing Denver Center
Tue 10:45:29 PM 41.3250 -105.4503 324° Northwest 317 365 32,000  Level Denver Center
Tue 10:46:30 PM 41.3961 -105.5217 323° Northwest 329 379 32,000  Level Denver Center
Tue 10:47:31 PM 41.4683 -105.5944 323° Northwest 336 387 32,000  Level Denver Center
Tue 10:48:33 PM 41.5544 -105.6794 324° Northwest 343 395 32,000  Level Denver Center
Tue 10:49:34 PM 41.6278 -105.7550 322° Northwest 346 398 32,000  Level Denver Center
Tue 10:50:35 PM 41.7025 -105.8300 323° Northwest 349 402 32,000  Level Denver Center
Tue 10:51:36 PM 41.7939 -105.9217 323° Northwest 361 415 32,000  Level Denver Center
Tue 10:52:37 PM 41.8706 -105.9986 323° Northwest 360 414 32,000  Level Denver Center
Tue 10:53:38 PM 41.9461 -106.0761 323° Northwest 360 414 32,000  Level Denver Center
Tue 10:54:39 PM 42.0344 -106.1658 323° Northwest 356 410 32,000  Level Denver Center
Tue 10:55:40 PM 42.1106 -106.2458 322° Northwest 358 412 32,000  Level Denver Center
Tue 10:56:41 PM 42.1867 -106.3233 323° Northwest 357 411 32,000  Level Denver Center
Tue 10:57:42 PM 42.2775 -106.4164 323° Northwest 365 420 32,000  Level Denver Center
Tue 10:58:43 PM 42.3531 -106.4958 322° Northwest 361 415 32,000  Level Denver Center
Tue 10:59:44 PM 42.4453 -106.5897 323° Northwest 368 423 32,000  Level Denver Center
Tue 11:00:45 PM 42.5228 -106.6711 322° Northwest 368 423 32,000  Level Denver Center
Tue 11:01:46 PM 42.6008 -106.7528 322° Northwest 371 427 32,000  Level Denver Center
Tue 11:02:47 PM 42.6914 -106.8481 322° Northwest 368 423 32,000  Level Denver Center
Tue 11:03:48 PM 42.7692 -106.9297 322° Northwest 369 425 32,000  Level Denver Center
Tue 11:04:49 PM 42.8467 -107.0125 322° Northwest 368 423 32,000  Level Denver Center
Tue 11:05:43 PM 42.9242 -107.0956 322° Northwest 370 426 32,000  Level Salt Lake Center
Tue 11:06:44 PM 42.9944 -107.1703 322° Northwest 369 425 32,000  Level Salt Lake Center
Tue 11:07:45 PM 43.0914 -107.2750 322° Northwest 370 426 32,000  Level Salt Lake Center
Tue 11:08:47 PM 43.1742 -107.3647 322° Northwest 376 433 32,000  Level Salt Lake Center
Tue 11:09:48 PM 43.2581 -107.4531 323° Northwest 380 437 32,000  Level Salt Lake Center
Tue 11:10:49 PM 43.3414 -107.5425 322° Northwest 381 438 32,000  Level Salt Lake Center
Tue 11:11:50 PM 43.4253 -107.6331 322° Northwest 383 441 32,000  Level Salt Lake Center
Tue 11:12:51 PM 43.5083 -107.7261 321° Northwest 385 443 32,000  Level Salt Lake Center
Tue 11:13:53 PM 43.5925 -107.8161 322° Northwest 383 441 32,000 -146 Level Salt Lake Center
Tue 11:14:54 PM 43.6767 -107.9086 322° Northwest 386 444 31,700 -1,475 Descending Salt Lake Center
Tue 11:15:55 PM 43.7606 -108.0022 321° Northwest 388 447 29,000 -2,607 Descending Salt Lake Center
Tue 11:16:56 PM 43.8442 -108.0925 322° Northwest 382 440 26,400 -2,803 Descending Salt Lake Center
Tue 11:17:57 PM 43.9414 -108.2011 321° Northwest 373 429 23,300 -2,852 Descending Salt Lake Center
Tue 11:18:58 PM 44.0192 -108.2886 321° Northwest 363 418 20,600 -2,585 Descending Salt Lake Center
Tue 11:20:00 PM 44.0956 -108.3744 321° Northwest 359 413 18,000 -2,537 Descending Salt Lake Center
Tue 11:21:01 PM 44.1703 -108.4583 321° Northwest 353 406 15,400 -2,557 Descending Salt Lake Center
Tue 11:22:02 PM 44.2442 -108.5406 321° Northwest 347 399 12,800 -1,967 Descending Salt Lake Center
Tue 11:23:03 PM 44.3114 -108.6156 321° Northwest 333 383 11,400 -1,279 Descending Salt Lake Center
Tue 11:24:04 PM 44.3694 -108.6756 324° Northwest 298 343 10,200 -1,131 Descending Salt Lake Center
Tue 11:25:05 PM 44.4292 -108.7317 326° Northwest 275 316 9,100 -634 Descending Salt Lake Center
Tue 11:26:07 PM 44.4633 -108.7978 306° West 234 269 8,900 -634 Descending Salt Lake Center
Tue 11:27:08 PM 44.4903 -108.8647 299° West 213 245 7,800 -1,082 Descending Salt Lake Center
Tue 11:28:09 PM 44.5114 -108.9278 295° West 198 228 6,700 -787 Descending Salt Lake Center
Tue 11:29:10 PM 44.5353 -108.9664 311° West 161 185 6,200 -787 Descending Salt Lake Center
Tue 11:30:11 PM 44.5236 -109.0239 254° West 173 199 5,100 -1,082 Descending Salt Lake Center

Login

Don't have an account? Register now (free) for customized features, flight alerts, and more!